Time;durP1;ratioP1;P1;durP2;ratioP2;P2;SDS_P1;SDS_P2;PMS_P1;PMS_P2;Temp;Humidity;BMP_temperature;BMP_pressure;BME280_temperature;BME280_humidity;BME280_pressure;Samples;Min_cycle;Max_cycle;Signal;HPM_P1;HPM_P2
2023/10/29 00:02:16;;;;;;;2.10;1.00;;;23.50;42.10;;;;;;5052587;28;20171;-66
2023/10/29 00:04:43;;;;;;;4.07;1.20;;;23.30;42.70;;;;;;5052166;28;20211;-66
2023/10/29 00:07:11;;;;;;;2.83;0.87;;;23.30;43.40;;;;;;5050782;28;20180;-66
2023/10/29 00:09:39;;;;;;;3.57;1.10;;;23.30;42.80;;;;;;5050310;28;20257;-67
2023/10/29 00:12:06;;;;;;;2.67;1.13;;;23.40;42.90;;;;;;5049819;28;20184;-66
2023/10/29 00:14:34;;;;;;;3.80;1.20;;;23.80;42.50;;;;;;5052797;28;20180;-68
2023/10/29 00:17:01;;;;;;;2.53;1.27;;;24.10;41.90;;;;;;5052582;28;20207;-67
2023/10/29 00:19:29;;;;;;;2.67;1.17;;;24.20;40.90;;;;;;5050646;28;20586;-67
2023/10/29 00:21:56;;;;;;;1.97;0.90;;;24.30;40.70;;;;;;5048085;28;20184;-66
2023/10/29 00:24:23;;;;;;;3.13;1.10;;;24.50;40.70;;;;;;5052098;28;20674;-67
2023/10/29 00:26:50;;;;;;;2.20;1.10;;;24.50;40.20;;;;;;5042387;28;20267;-68
2023/10/29 00:29:18;;;;;;;3.40;1.20;;;24.60;41.10;;;;;;5048301;28;20184;-66
2023/10/29 00:31:45;;;;;;;2.10;1.17;;;24.70;39.90;;;;;;5047065;28;20214;-66
2023/10/29 00:34:12;;;;;;;4.30;1.30;;;24.60;40.10;;;;;;5049904;28;20190;-66
2023/10/29 00:36:41;;;;;;;2.43;1.13;;;24.90;39.50;;;;;;5051558;28;20227;-66
2023/10/29 00:39:08;;;;;;;3.10;1.20;;;25.00;39.10;;;;;;5051038;28;20184;-68
2023/10/29 00:41:36;;;;;;;4.17;1.10;;;24.90;39.00;;;;;;5049298;28;20176;-66
2023/10/29 00:44:04;;;;;;;3.43;1.13;;;25.30;38.60;;;;;;5050135;28;20563;-67
2023/10/29 00:46:33;;;;;;;3.70;1.13;;;25.20;38.10;;;;;;5050048;28;20245;-68
2023/10/29 00:49:02;;;;;;;3.40;1.23;;;24.80;38.90;;;;;;5048553;28;20233;-67
2023/10/29 00:51:30;;;;;;;1.90;0.93;;;24.80;39.20;;;;;;5048732;28;20191;-67
2023/10/29 00:53:58;;;;;;;3.90;0.80;;;25.30;38.20;;;;;;5049850;28;20646;-66
2023/10/29 00:56:26;;;;;;;5.43;1.13;;;25.40;37.90;;;;;;5051964;28;20175;-67
2023/10/29 00:58:55;;;;;;;4.50;1.20;;;25.80;37.00;;;;;;5051110;28;20639;-68
2023/10/29 01:01:22;;;;;;;3.80;1.10;;;25.70;36.60;;;;;;5051291;28;20226;-68
2023/10/29 01:03:50;;;;;;;1.60;1.10;;;25.80;37.60;;;;;;5046052;28;20212;-66
2023/10/29 01:06:18;;;;;;;4.07;1.50;;;25.90;38.60;;;;;;5043193;28;20184;-67
2023/10/29 01:08:46;;;;;;;4.47;1.43;;;25.70;40.30;;;;;;5045930;28;20179;-67
2023/10/29 01:11:14;;;;;;;6.47;1.43;;;25.80;42.10;;;;;;5053054;28;20545;-67
2023/10/29 01:13:41;;;;;;;2.97;1.40;;;25.80;42.10;;;;;;5052317;28;20207;-68
2023/10/29 01:16:08;;;;;;;8.83;1.80;;;25.80;41.10;;;;;;5052071;28;20184;-67
2023/10/29 01:18:36;;;;;;;6.57;1.50;;;26.00;41.80;;;;;;5041698;28;20178;-67
2023/10/29 01:21:08;;;;;;;5.57;1.77;;;26.30;40.90;;;;;;5051518;28;20223;-67
2023/10/29 01:23:37;;;;;;;5.50;1.50;;;25.90;42.50;;;;;;5051510;28;20184;-68
2023/10/29 01:26:07;;;;;;;4.87;1.43;;;25.80;41.60;;;;;;5047312;28;20616;-67
2023/10/29 01:28:35;;;;;;;7.57;1.63;;;25.80;42.80;;;;;;5049288;28;20188;-68
2023/10/29 01:31:02;;;;;;;5.53;1.40;;;25.80;43.50;;;;;;5052094;28;20271;-67
2023/10/29 01:33:29;;;;;;;6.10;1.67;;;25.80;42.70;;;;;;5050387;28;20186;-67
2023/10/29 01:35:57;;;;;;;4.10;1.33;;;26.00;43.30;;;;;;5050240;28;20175;-68
2023/10/29 01:38:24;;;;;;;3.73;1.23;;;26.20;42.60;;;;;;5051841;28;20617;-67
2023/10/29 01:40:51;;;;;;;4.80;1.30;;;26.30;43.20;;;;;;5054877;28;20211;-69
2023/10/29 01:43:18;;;;;;;8.00;1.53;;;26.40;43.10;;;;;;5055469;28;20259;-68
2023/10/29 01:45:46;;;;;;;2.97;1.30;;;26.50;42.90;;;;;;5055801;28;20605;-69
2023/10/29 01:48:13;;;;;;;3.73;1.33;;;26.20;42.40;;;;;;5055845;28;20183;-67
2023/10/29 01:50:40;;;;;;;3.60;1.40;;;26.40;42.30;;;;;;5056027;28;20191;-68
2023/10/29 01:53:08;;;;;;;6.27;1.43;;;26.30;42.50;;;;;;5050332;28;20176;-68
2023/10/29 01:55:41;;;;;;;3.20;1.00;;;26.20;42.10;;;;;;5055696;28;20191;-67
2023/10/29 01:58:09;;;;;;;8.47;1.60;;;26.20;42.30;;;;;;5052190;28;20198;-68
2023/10/29 02:00:39;;;;;;;8.30;1.37;;;26.50;41.40;;;;;;5055820;28;20169;-69
2023/10/29 02:03:06;;;;;;;4.33;1.50;;;26.60;40.60;;;;;;5056015;28;20262;-68
2023/10/29 02:05:34;;;;;;;5.20;1.20;;;26.50;40.40;;;;;;5055565;28;20206;-69
2023/10/29 02:08:01;;;;;;;9.40;1.47;;;26.60;39.90;;;;;;5054818;28;20191;-68
2023/10/29 02:10:28;;;;;;;6.73;1.30;;;26.50;39.90;;;;;;5054784;28;20278;-69
2023/10/29 02:12:56;;;;;;;3.53;1.40;;;26.40;39.60;;;;;;5055660;28;20176;-67
2023/10/29 02:15:23;;;;;;;3.77;1.40;;;26.20;40.10;;;;;;5055625;28;20192;-68
2023/10/29 02:17:50;;;;;;;5.23;1.27;;;26.70;40.10;;;;;;5055131;28;20259;-69
2023/10/29 02:20:18;;;;;;;4.13;1.17;;;27.30;38.90;;;;;;5055283;28;20262;-66
2023/10/29 02:22:45;;;;;;;2.50;1.10;;;27.00;38.00;;;;;;5055377;28;20263;-68
2023/10/29 02:25:12;;;;;;;3.43;1.50;;;27.00;37.90;;;;;;5055457;28;20219;-68
2023/10/29 02:27:40;;;;;;;5.37;1.13;;;26.60;38.40;;;;;;5051171;28;20175;-68
2023/10/29 02:30:08;;;;;;;3.80;1.27;;;26.90;38.40;;;;;;5055316;28;20211;-68
2023/10/29 02:32:35;;;;;;;3.80;1.10;;;27.00;37.70;;;;;;5054511;28;20276;-67
2023/10/29 02:35:03;;;;;;;3.60;1.20;;;26.80;38.00;;;;;;5055470;28;20677;-69
2023/10/29 02:37:30;;;;;;;5.53;1.40;;;26.40;38.70;;;;;;5054524;28;20334;-68
2023/10/29 02:39:58;;;;;;;2.47;1.00;;;26.60;39.20;;;;;;5051853;28;20184;-69
2023/10/29 02:42:25;;;;;;;4.63;1.30;;;26.70;38.90;;;;;;5056264;28;20199;-69
2023/10/29 02:44:53;;;;;;;4.23;1.20;;;26.50;39.90;;;;;;5053074;28;20226;-66
2023/10/29 02:47:20;;;;;;;6.20;1.60;;;26.60;39.60;;;;;;5053664;28;20275;-67
2023/10/29 02:49:47;;;;;;;4.53;1.30;;;26.50;39.80;;;;;;5049828;28;20233;-68
2023/10/29 02:52:15;;;;;;;5.33;1.30;;;26.70;39.60;;;;;;5049666;28;20230;-68
2023/10/29 02:54:42;;;;;;;5.37;1.30;;;26.50;40.40;;;;;;5053237;28;20192;-66
2023/10/29 02:57:09;;;;;;;4.77;1.10;;;26.70;40.00;;;;;;5053432;28;20230;-70
2023/10/29 02:59:37;;;;;;;6.33;1.43;;;26.50;40.40;;;;;;5053264;28;20248;-68
2023/10/29 03:02:04;;;;;;;4.67;1.53;;;26.60;40.90;;;;;;5047289;28;20196;-67
2023/10/29 03:04:33;;;;;;;4.13;1.33;;;26.50;40.30;;;;;;5051529;28;20207;-69
2023/10/29 03:07:00;;;;;;;3.33;1.40;;;26.50;40.90;;;;;;5053575;28;20585;-68
2023/10/29 03:09:28;;;;;;;3.63;1.20;;;26.50;40.90;;;;;;5060692;28;20262;-68
2023/10/29 03:11:55;;;;;;;9.73;1.40;;;27.10;40.80;;;;;;5048296;28;20179;-69
2023/10/29 03:14:22;;;;;;;3.90;1.33;;;26.90;40.20;;;;;;5053258;28;20657;-68
2023/10/29 03:16:50;;;;;;;4.67;1.27;;;27.30;40.00;;;;;;5053162;28;20645;-68
2023/10/29 03:19:18;;;;;;;5.23;1.40;;;27.40;39.10;;;;;;5053437;28;20183;-68
2023/10/29 03:21:47;;;;;;;5.53;1.10;;;27.70;38.90;;;;;;5053097;28;20198;-68
2023/10/29 03:24:15;;;;;;;3.60;1.30;;;27.60;38.80;;;;;;5052563;28;20290;-68
2023/10/29 03:26:43;;;;;;;2.93;1.40;;;27.90;38.70;;;;;;5058126;28;20264;-67
2023/10/29 03:29:11;;;;;;;5.43;1.40;;;27.70;38.50;;;;;;5053129;28;20651;-70
2023/10/29 03:31:38;;;;;;;3.83;1.10;;;27.70;38.40;;;;;;5052950;28;20664;-67
2023/10/29 03:34:07;;;;;;;5.13;1.40;;;27.70;39.30;;;;;;5053044;28;20183;-69
2023/10/29 03:36:35;;;;;;;4.00;1.30;;;27.70;38.60;;;;;;4954699;28;2824142;-67
2023/10/29 03:39:03;;;;;;;3.60;1.13;;;27.60;38.50;;;;;;5052359;28;20294;-67
2023/10/29 03:41:31;;;;;;;3.27;1.10;;;27.20;39.30;;;;;;5054768;28;20184;-67
2023/10/29 03:43:58;;;;;;;5.37;1.63;;;27.30;38.60;;;;;;5054117;28;20298;-67
2023/10/29 03:46:25;;;;;;;3.50;1.20;;;27.20;39.20;;;;;;5053502;28;20275;-71
2023/10/29 03:48:53;;;;;;;4.33;1.33;;;27.30;38.60;;;;;;5048522;28;20190;-68
2023/10/29 03:51:20;;;;;;;2.20;1.07;;;27.40;38.30;;;;;;5051962;28;20188;-68
2023/10/29 03:53:48;;;;;;;2.73;1.00;;;28.10;38.00;;;;;;5051351;28;20176;-68
2023/10/29 03:56:15;;;;;;;3.20;1.10;;;27.60;37.40;;;;;;5053066;28;20199;-68
2023/10/29 03:58:42;;;;;;;2.50;1.30;;;27.20;38.00;;;;;;5053906;28;20191;-68
2023/10/29 04:01:14;;;;;;;3.70;1.20;;;27.60;36.90;;;;;;5054058;28;20180;-68
2023/10/29 04:03:43;;;;;;;5.97;1.10;;;28.00;37.10;;;;;;5045873;28;20183;-68
2023/10/29 04:06:14;;;;;;;1.73;1.00;;;28.20;36.20;;;;;;5052246;28;20206;-67
2023/10/29 04:08:41;;;;;;;2.13;0.93;;;27.90;36.80;;;;;;5046003;28;20168;-68
2023/10/29 04:11:08;;;;;;;2.43;0.97;;;27.70;36.60;;;;;;5055982;28;20192;-66
2023/10/29 04:13:36;;;;;;;4.10;1.27;;;27.70;37.90;;;;;;5053680;28;20172;-68
2023/10/29 04:16:03;;;;;;;4.10;1.43;;;27.90;37.10;;;;;;5056713;28;20270;-68
2023/10/29 04:18:33;;;;;;;4.70;1.50;;;28.20;36.40;;;;;;5053593;28;20219;-66
2023/10/29 04:21:07;;;;;;;4.50;1.53;;;27.80;37.10;;;;;;5052588;28;20195;-67
2023/10/29 04:23:36;;;;;;;3.40;0.93;;;27.60;38.60;;;;;;5040746;28;20214;-68
2023/10/29 04:26:04;;;;;;;2.23;0.97;;;27.90;38.60;;;;;;5049578;28;20203;-68
2023/10/29 04:28:31;;;;;;;7.70;1.23;;;27.80;38.70;;;;;;5047060;28;20203;-68
2023/10/29 04:31:02;;;;;;;4.60;1.30;;;27.90;38.20;;;;;;5053125;28;20527;-68
2023/10/29 04:33:29;;;;;;;4.17;1.30;;;27.70;39.70;;;;;;5037904;28;20198;-68
2023/10/29 04:35:56;;;;;;;7.07;1.27;;;27.80;39.20;;;;;;5048975;28;20186;-67
2023/10/29 04:38:24;;;;;;;6.80;1.37;;;28.00;39.30;;;;;;5053490;28;20307;-68
2023/10/29 04:40:52;;;;;;;3.70;1.37;;;28.40;38.10;;;;;;5056158;28;20196;-68
2023/10/29 04:43:19;;;;;;;4.83;1.40;;;28.50;38.30;;;;;;5051504;28;20638;-70
2023/10/29 04:45:47;;;;;;;4.73;1.70;;;28.60;38.70;;;;;;5052526;28;20302;-69
2023/10/29 04:48:16;;;;;;;5.60;1.43;;;29.10;37.90;;;;;;5051610;28;20171;-68
2023/10/29 04:50:43;;;;;;;7.07;1.40;;;28.30;39.40;;;;;;5049125;28;20180;-68
2023/10/29 04:53:10;;;;;;;5.10;1.35;;;28.30;39.40;;;;;;5049747;28;20180;-67
2023/10/29 04:55:37;;;;;;;2.33;1.13;;;28.60;38.70;;;;;;5050877;28;20638;-68
2023/10/29 04:58:05;;;;;;;3.78;1.20;;;29.30;37.70;;;;;;5050136;28;20176;-67
2023/10/29 05:00:32;;;;;;;4.65;1.45;;;29.00;36.50;;;;;;5048751;28;20172;-69
2023/10/29 05:02:59;;;;;;;4.75;1.27;;;28.80;38.00;;;;;;5049986;28;20642;-67
2023/10/29 05:05:27;;;;;;;4.33;1.10;;;29.30;37.20;;;;;;5049665;28;20275;-66
2023/10/29 05:07:54;;;;;;;5.10;1.35;;;29.20;37.00;;;;;;5052938;28;20224;-68
2023/10/29 05:10:25;;;;;;;4.63;1.27;;;28.80;37.10;;;;;;5051543;28;20188;-71
2023/10/29 05:12:52;;;;;;;3.73;1.00;;;28.50;37.70;;;;;;5058797;28;20187;-69
2023/10/29 05:15:19;;;;;;;7.63;1.33;;;28.50;37.40;;;;;;5049915;28;20634;-68
2023/10/29 05:17:47;;;;;;;6.85;1.30;;;28.90;37.90;;;;;;5050476;28;20183;-67
2023/10/29 05:20:15;;;;;;;4.87;1.20;;;28.30;38.00;;;;;;5052003;28;20544;-69
2023/10/29 05:22:42;;;;;;;6.30;1.30;;;28.60;38.70;;;;;;5046871;28;20658;-66
2023/10/29 05:25:10;;;;;;;2.83;1.20;;;29.00;38.10;;;;;;5051407;28;20204;-68
2023/10/29 05:27:37;;;;;;;3.90;1.08;;;29.20;37.40;;;;;;5044528;28;20173;-68
2023/10/29 05:30:06;;;;;;;5.72;1.60;;;29.30;37.90;;;;;;5051076;28;20184;-68
2023/10/29 05:32:33;;;;;;;4.28;1.10;;;29.10;38.20;;;;;;5045910;28;20255;-68
2023/10/29 05:35:01;;;;;;;3.67;1.20;;;28.90;38.20;;;;;;5050161;28;20658;-66
2023/10/29 05:37:28;;;;;;;4.93;1.30;;;28.50;38.60;;;;;;5048038;28;20222;-66
2023/10/29 05:39:55;;;;;;;4.90;1.15;;;27.70;40.60;;;;;;5049607;28;20194;-66
2023/10/29 05:42:23;;;;;;;5.33;1.60;;;27.60;40.00;;;;;;5060028;28;20190;-67
2023/10/29 05:44:50;;;;;;;3.50;1.30;;;27.50;40.50;;;;;;5051040;28;20207;-67
2023/10/29 05:47:17;;;;;;;6.27;1.47;;;27.00;42.60;;;;;;5050857;28;20226;-66
2023/10/29 05:49:45;;;;;;;5.40;1.27;;;27.40;41.60;;;;;;5049904;28;20188;-65
2023/10/29 05:52:12;;;;;;;4.37;1.17;;;27.20;39.80;;;;;;5052038;28;20215;-68
2023/10/29 05:54:40;;;;;;;8.03;1.37;;;27.40;40.80;;;;;;5051709;28;20203;-68
2023/10/29 05:57:07;;;;;;;4.43;1.20;;;27.60;40.30;;;;;;5048828;28;20195;-65
2023/10/29 05:59:35;;;;;;;6.73;1.30;;;27.60;40.70;;;;;;5050282;28;20569;-70
2023/10/29 06:02:05;;;;;;;3.83;1.20;;;27.50;40.90;;;;;;5052255;28;20263;-68
2023/10/29 06:04:33;;;;;;;6.13;1.50;;;27.00;42.70;;;;;;5052203;28;20225;-67
2023/10/29 06:07:00;;;;;;;4.30;1.20;;;26.80;43.70;;;;;;5051504;28;20686;-68
2023/10/29 06:09:27;;;;;;;7.40;1.40;;;26.60;44.50;;;;;;5051177;28;20180;-67
2023/10/29 06:11:55;;;;;;;3.00;1.07;;;26.90;42.30;;;;;;5066101;28;20182;-67
2023/10/29 06:14:22;;;;;;;5.00;1.37;;;27.40;42.20;;;;;;5055911;28;20172;-67
2023/10/29 06:16:56;;;;;;;5.77;1.20;;;27.90;41.70;;;;;;5052474;28;20670;-68
2023/10/29 06:20:08;;;;;;;6.33;1.30;;;27.80;42.10;;;;;;5051080;28;20183;-69
2023/10/29 06:22:58;;;;;;;4.43;1.53;;;28.00;41.30;;;;;;5051315;28;20224;-66
2023/10/29 06:25:40;;;;;;;5.23;1.27;;;27.50;41.70;;;;;;5046765;28;20219;-68
2023/10/29 06:28:24;;;;;;;7.10;1.60;;;27.40;42.20;;;;;;5047381;28;20183;-68
2023/10/29 06:31:17;;;;;;;7.77;1.50;;;27.40;42.80;;;;;;5055837;28;20510;-68
2023/10/29 06:34:20;;;;;;;5.57;1.40;;;26.60;43.80;;;;;;5043235;28;20185;-68
2023/10/29 06:36:46;;;;;;;6.30;1.33;;;26.20;43.80;;;;;;5055610;28;20211;-70
2023/10/29 06:39:16;;;;;;;6.57;1.10;;;25.80;45.30;;;;;;5049965;28;20274;-67
2023/10/29 06:41:44;;;;;;;4.33;1.33;;;25.70;45.20;;;;;;5061007;28;20187;-70
2023/10/29 06:44:14;;;;;;;6.17;1.53;;;25.30;46.40;;;;;;5053341;28;20663;-69
2023/10/29 06:46:46;;;;;;;4.63;1.20;;;25.30;46.60;;;;;;5052779;28;20271;-68
2023/10/29 06:49:16;;;;;;;4.43;1.30;;;25.40;46.80;;;;;;5054449;28;20184;-68
2023/10/29 06:51:54;;;;;;;6.90;1.30;;;25.60;45.20;;;;;;5055176;28;20172;-68
2023/10/29 06:54:28;;;;;;;8.33;4.27;;;26.30;43.80;;;;;;5066332;28;20252;-70
2023/10/29 06:57:06;;;;;;;6.53;2.33;;;26.20;44.40;;;;;;5062423;28;20259;-69
2023/10/29 06:59:45;;;;;;;7.37;2.73;;;25.90;45.70;;;;;;5060105;28;20262;-67
2023/10/29 07:02:16;;;;;;;4.67;1.70;;;25.30;48.60;;;;;;5048041;28;20195;-67
2023/10/29 07:04:49;;;;;;;3.20;1.17;;;24.40;51.00;;;;;;5077197;28;20289;-67
2023/10/29 07:07:17;;;;;;;6.83;1.33;;;23.90;52.80;;;;;;5050336;28;20230;-67
2023/10/29 07:09:45;;;;;;;14.40;1.77;;;23.80;54.20;;;;;;5052768;28;20242;-67
2023/10/29 07:12:13;;;;;;;8.77;1.77;;;23.70;55.00;;;;;;5054531;28;20222;-65
2023/10/29 07:14:40;;;;;;;7.17;1.97;;;24.30;53.40;;;;;;5053456;28;20195;-67
2023/10/29 07:17:08;;;;;;;8.93;1.77;;;23.70;54.50;;;;;;5053361;28;20188;-67
2023/10/29 07:19:35;;;;;;;6.13;1.70;;;23.60;54.80;;;;;;5054899;28;20249;-67
2023/10/29 07:22:02;;;;;;;6.60;1.60;;;23.20;57.70;;;;;;5053862;28;20644;-67
2023/10/29 07:24:30;;;;;;;13.60;2.27;;;23.00;59.50;;;;;;5043231;28;20212;-65
2023/10/29 07:26:58;;;;;;;7.07;1.90;;;22.90;58.90;;;;;;5055189;28;20545;-68
2023/10/29 07:29:25;;;;;;;9.90;1.60;;;22.40;60.30;;;;;;5054932;28;20279;-67
2023/10/29 07:31:52;;;;;;;5.90;1.50;;;22.20;61.20;;;;;;5053370;28;20184;-65
2023/10/29 07:34:20;;;;;;;5.50;1.67;;;22.00;62.20;;;;;;5054902;28;20189;-68
2023/10/29 07:36:47;;;;;;;8.70;1.60;;;21.80;63.30;;;;;;5050421;28;20686;-67
2023/10/29 07:39:15;;;;;;;5.97;2.30;;;21.70;63.90;;;;;;5053013;28;20191;-68
2023/10/29 07:41:45;;;;;;;7.80;2.50;;;21.50;64.20;;;;;;5077831;28;20184;-68
2023/10/29 07:44:13;;;;;;;8.33;1.90;;;21.40;64.90;;;;;;5056593;28;20215;-67
2023/10/29 07:46:40;;;;;;;8.63;2.30;;;21.40;65.20;;;;;;5055620;28;20593;-70
2023/10/29 07:49:08;;;;;;;7.43;1.50;;;21.40;65.10;;;;;;5055135;28;20195;-70
2023/10/29 07:51:47;;;;;;;5.10;1.60;;;21.30;65.10;;;;;;5056945;28;20188;-70
2023/10/29 07:54:18;;;;;;;7.30;1.80;;;21.30;65.10;;;;;;5052247;28;20203;-68
2023/10/29 07:56:51;;;;;;;8.13;1.80;;;21.20;66.30;;;;;;5050644;28;20340;-69
2023/10/29 07:59:35;;;;;;;8.20;1.33;;;21.00;67.00;;;;;;5054290;28;20186;-68
2023/10/29 08:02:03;;;;;;;5.97;1.60;;;21.00;67.00;;;;;;5056004;28;20195;-68
2023/10/29 08:04:34;;;;;;;8.13;1.83;;;20.90;67.50;;;;;;5052131;28;20659;-69
2023/10/29 08:07:03;;;;;;;6.30;1.80;;;20.90;67.80;;;;;;5052634;28;20571;-69
2023/10/29 08:09:41;;;;;;;5.60;1.27;;;20.80;68.00;;;;;;5054515;28;20743;-69
2023/10/29 08:12:15;;;;;;;6.90;1.73;;;20.80;68.40;;;;;;5053219;28;20651;-68
2023/10/29 08:14:54;;;;;;;7.17;1.87;;;20.80;69.00;;;;;;5056394;28;20192;-68
2023/10/29 08:17:22;;;;;;;7.97;2.10;;;20.80;69.10;;;;;;5055083;28;20203;-69
2023/10/29 08:19:55;;;;;;;7.77;1.93;;;20.70;69.70;;;;;;5054666;28;20270;-68
2023/10/29 08:22:22;;;;;;;10.43;2.47;;;20.70;70.10;;;;;;5048169;28;20184;-70
2023/10/29 08:24:50;;;;;;;7.33;2.10;;;20.60;70.60;;;;;;5045099;28;20701;-69
2023/10/29 08:27:18;;;;;;;9.43;1.97;;;20.50;71.30;;;;;;5050771;28;20258;-67
2023/10/29 08:29:45;;;;;;;9.73;2.10;;;20.40;71.90;;;;;;5058388;28;20223;-67
2023/10/29 08:32:17;;;;;;;10.90;2.10;;;20.40;72.70;;;;;;5066686;28;20183;-71
2023/10/29 08:34:47;;;;;;;9.17;2.07;;;20.40;73.30;;;;;;5059428;28;20252;-69
2023/10/29 08:37:15;;;;;;;6.93;1.80;;;20.30;73.70;;;;;;5053472;28;20265;-66
2023/10/29 08:39:42;;;;;;;15.80;2.27;;;20.20;73.60;;;;;;5068945;28;20188;-67
2023/10/29 08:42:10;;;;;;;10.67;2.00;;;20.20;73.80;;;;;;5071511;28;20688;-67
2023/10/29 08:44:38;;;;;;;8.23;1.97;;;20.20;74.00;;;;;;5062650;28;20230;-67
2023/10/29 08:47:05;;;;;;;11.03;2.47;;;20.20;74.20;;;;;;5064492;28;20194;-66
2023/10/29 08:49:33;;;;;;;7.33;1.60;;;20.10;74.30;;;;;;5072855;28;20546;-66
2023/10/29 08:52:01;;;;;;;12.10;1.93;;;20.10;74.40;;;;;;5054044;28;20188;-67
2023/10/29 08:54:28;;;;;;;14.17;2.20;;;20.00;74.10;;;;;;5057257;28;20353;-68
2023/10/29 08:56:56;;;;;;;9.20;1.90;;;20.00;74.20;;;;;;5056722;28;20196;-68
2023/10/29 08:59:24;;;;;;;12.93;2.43;;;20.00;74.00;;;;;;5071576;28;20171;-66
2023/10/29 09:01:53;;;;;;;12.37;2.60;;;20.00;73.90;;;;;;5059081;28;20187;-66
2023/10/29 09:04:22;;;;;;;9.53;2.10;;;20.00;74.00;;;;;;5039766;28;20688;-67
2023/10/29 09:06:49;;;;;;;11.93;2.43;;;19.90;73.80;;;;;;5063773;28;20565;-67
2023/10/29 09:09:17;;;;;;;11.07;1.90;;;19.90;73.70;;;;;;5053959;28;20185;-67
2023/10/29 09:11:46;;;;;;;9.00;2.13;;;19.90;73.30;;;;;;5059462;28;20561;-66
2023/10/29 09:14:14;;;;;;;10.13;2.03;;;19.90;73.60;;;;;;5072374;28;20218;-66
2023/10/29 09:16:41;;;;;;;9.30;2.17;;;19.90;73.40;;;;;;5066085;28;20420;-66
2023/10/29 09:19:09;;;;;;;9.43;2.07;;;19.80;73.50;;;;;;5062296;28;20258;-67
2023/10/29 09:21:36;;;;;;;13.03;2.17;;;19.90;73.20;;;;;;5064463;28;20218;-65
2023/10/29 09:24:05;;;;;;;13.53;2.40;;;19.80;72.60;;;;;;5054259;28;20667;-66
2023/10/29 09:26:40;;;;;;;9.70;2.20;;;19.80;72.60;;;;;;5051955;28;20188;-65
2023/10/29 09:29:08;;;;;;;7.97;1.80;;;19.80;71.60;;;;;;5067279;28;20268;-67
2023/10/29 09:31:35;;;;;;;12.50;2.23;;;19.80;71.50;;;;;;5072881;28;20183;-67
2023/10/29 09:34:04;;;;;;;10.70;2.23;;;19.80;71.10;;;;;;5072442;28;20179;-68
2023/10/29 09:36:32;;;;;;;7.03;1.87;;;19.80;70.50;;;;;;5072574;28;20192;-67
2023/10/29 09:38:59;;;;;;;12.30;2.00;;;19.80;70.00;;;;;;5058070;28;20195;-68
2023/10/29 09:41:27;;;;;;;5.97;1.73;;;19.80;68.90;;;;;;5064992;28;20187;-66
2023/10/29 09:43:56;;;;;;;14.57;2.20;;;19.80;69.10;;;;;;5067712;28;20179;-66
2023/10/29 09:46:24;;;;;;;10.43;2.20;;;19.80;68.20;;;;;;5068147;28;20184;-66
2023/10/29 09:48:52;;;;;;;11.83;1.93;;;19.80;66.30;;;;;;5054044;28;20309;-67
2023/10/29 09:51:21;;;;;;;8.37;1.60;;;19.80;66.70;;;;;;5072808;28;20217;-67
2023/10/29 09:53:51;;;;;;;10.00;2.07;;;19.80;66.10;;;;;;5066298;28;20189;-66
2023/10/29 09:56:19;;;;;;;5.27;1.63;;;19.80;66.00;;;;;;5069386;28;20558;-65
2023/10/29 09:58:46;;;;;;;8.20;1.90;;;19.80;65.70;;;;;;5071243;28;20179;-66
2023/10/29 10:01:14;;;;;;;6.90;1.80;;;19.80;65.20;;;;;;5070165;28;20270;-67
2023/10/29 10:03:41;;;;;;;13.73;2.57;;;19.80;64.80;;;;;;5073168;28;20712;-65
2023/10/29 10:06:10;;;;;;;6.73;2.20;;;19.80;65.00;;;;;;5075020;28;20246;-66
2023/10/29 10:08:37;;;;;;;10.37;2.40;;;19.80;65.30;;;;;;5065674;28;20577;-66
2023/10/29 10:11:04;;;;;;;7.53;1.83;;;19.80;65.40;;;;;;5051682;28;20187;-66
2023/10/29 10:13:41;;;;;;;8.90;2.00;;;19.80;65.80;;;;;;5047277;28;20206;-67
2023/10/29 10:16:15;;;;;;;12.57;2.20;;;19.80;66.40;;;;;;5052599;28;20179;-66
2023/10/29 10:18:50;;;;;;;8.97;2.33;;;19.80;66.60;;;;;;5053186;28;20179;-66
2023/10/29 10:21:20;;;;;;;16.10;2.60;;;19.80;67.10;;;;;;5051034;28;20265;-66
2023/10/29 10:23:52;;;;;;;17.37;2.53;;;19.70;67.30;;;;;;5053750;28;20179;-67
2023/10/29 10:26:31;;;;;;;15.77;2.80;;;19.70;67.60;;;;;;5049044;28;20306;-67
2023/10/29 10:29:00;;;;;;;14.33;2.40;;;19.70;67.90;;;;;;5049134;28;20509;-67
2023/10/29 10:31:29;;;;;;;15.73;2.40;;;19.70;68.20;;;;;;5046935;28;20181;-67
2023/10/29 10:34:22;;;;;;;13.33;2.67;;;19.70;68.20;;;;;;5052969;28;20646;-64
2023/10/29 10:36:50;;;;;;;8.80;2.53;;;19.70;68.30;;;;;;5047362;28;20694;-66
2023/10/29 10:39:28;;;;;;;17.37;2.60;;;19.70;68.10;;;;;;5046295;28;20192;-65
2023/10/29 10:41:56;;;;;;;10.57;2.10;;;19.70;67.60;;;;;;5051717;28;20180;-67
2023/10/29 10:44:23;;;;;;;10.43;2.43;;;19.70;67.50;;;;;;5050409;28;20208;-65
2023/10/29 10:46:56;;;;;;;11.33;2.23;;;19.70;67.30;;;;;;5051580;28;20192;-67
2023/10/29 10:49:24;;;;;;;7.40;1.83;;;19.60;67.10;;;;;;5051786;28;20270;-64
2023/10/29 10:51:58;;;;;;;12.83;2.80;;;19.70;67.20;;;;;;5038226;28;20250;-66
2023/10/29 10:54:27;;;;;;;10.47;2.20;;;19.60;66.70;;;;;;5061142;28;20180;-66
2023/10/29 10:56:56;;;;;;;10.70;2.37;;;19.60;66.80;;;;;;5053302;28;20196;-67
2023/10/29 10:59:23;;;;;;;9.47;2.63;;;19.60;66.50;;;;;;5053066;28;20180;-66
2023/10/29 11:01:52;;;;;;;14.73;2.67;;;19.60;66.20;;;;;;5052463;28;20270;-66
2023/10/29 11:04:21;;;;;;;10.53;2.30;;;19.60;66.20;;;;;;5052068;28;20211;-67
2023/10/29 11:06:49;;;;;;;10.27;2.40;;;19.60;66.30;;;;;;5059955;28;20179;-65
2023/10/29 11:09:19;;;;;;;11.83;2.63;;;19.50;66.70;;;;;;5074788;28;20179;-66
2023/10/29 11:11:56;;;;;;;12.30;2.03;;;19.50;66.90;;;;;;5056927;28;20539;-67
2023/10/29 11:14:26;;;;;;;11.07;1.90;;;19.40;66.80;;;;;;5045858;28;20192;-66
2023/10/29 11:16:55;;;;;;;14.47;2.70;;;19.40;66.70;;;;;;5045897;28;20203;-67
2023/10/29 11:19:43;;;;;;;11.13;2.73;;;19.40;66.70;;;;;;5046858;28;20187;-67
2023/10/29 11:22:20;;;;;;;11.00;2.13;;;19.40;66.90;;;;;;5073118;28;20187;-67
2023/10/29 11:25:08;;;;;;;10.53;2.10;;;19.30;66.70;;;;;;5070313;28;20306;-67
2023/10/29 11:27:46;;;;;;;10.93;2.20;;;19.40;66.90;;;;;;5052885;28;20191;-67
2023/10/29 11:30:17;;;;;;;11.23;1.97;;;19.30;66.80;;;;;;5072402;28;20202;-67
2023/10/29 11:32:47;;;;;;;15.77;3.03;;;19.30;67.00;;;;;;5066405;28;20549;-67
2023/10/29 11:35:19;;;;;;;12.10;2.67;;;19.30;67.40;;;;;;5066003;28;20224;-67
2023/10/29 11:37:48;;;;;;;13.47;2.57;;;19.30;67.80;;;;;;5073866;28;20242;-68
2023/10/29 11:40:35;;;;;;;13.70;2.40;;;19.30;68.20;;;;;;5067111;28;20187;-67
2023/10/29 11:43:17;;;;;;;11.33;2.47;;;19.30;68.30;;;;;;5051222;28;20188;-68
2023/10/29 11:46:01;;;;;;;12.37;2.50;;;19.30;68.60;;;;;;5054063;28;20223;-67
2023/10/29 11:48:29;;;;;;;11.67;2.50;;;19.20;69.10;;;;;;5053360;28;20187;-67
2023/10/29 11:51:08;;;;;;;10.33;2.70;;;19.20;69.40;;;;;;5053777;28;20646;-68
2023/10/29 11:53:39;;;;;;;8.57;2.50;;;19.20;69.70;;;;;;5052655;28;20219;-67
2023/10/29 11:56:10;;;;;;;12.07;3.07;;;19.10;70.00;;;;;;5058949;28;20271;-65
2023/10/29 11:58:37;;;;;;;11.67;2.50;;;19.10;70.20;;;;;;5054537;28;20233;-66
2023/10/29 12:01:06;;;;;;;10.97;2.70;;;19.10;70.30;;;;;;5052286;28;20242;-66
2023/10/29 12:03:35;;;;;;;11.13;3.13;;;19.10;70.40;;;;;;5053778;28;20708;-65
2023/10/29 12:06:02;;;;;;;11.43;2.37;;;19.10;70.90;;;;;;5054235;28;20666;-65
2023/10/29 12:08:32;;;;;;;15.60;3.00;;;19.10;71.40;;;;;;5053839;28;20176;-66
2023/10/29 12:11:00;;;;;;;12.70;2.87;;;19.00;71.60;;;;;;5061764;28;20278;-66
2023/10/29 12:13:43;;;;;;;11.80;2.70;;;19.00;72.00;;;;;;5055723;28;20206;-69
2023/10/29 12:16:14;;;;;;;16.53;3.40;;;19.00;71.90;;;;;;5043772;28;20255;-67
2023/10/29 12:18:53;;;;;;;17.33;2.80;;;18.90;72.60;;;;;;5066699;28;20191;-70
2023/10/29 12:21:26;;;;;;;10.97;3.03;;;18.80;72.70;;;;;;5074346;28;20645;-71
2023/10/29 12:23:57;;;;;;;17.57;3.43;;;18.80;72.90;;;;;;5051609;28;20210;-66
2023/10/29 12:26:33;;;;;;;9.97;2.43;;;18.80;73.30;;;;;;5082464;28;21054;-65
2023/10/29 12:29:01;;;;;;;18.67;3.20;;;18.80;74.00;;;;;;5060391;28;20194;-66
2023/10/29 12:31:32;;;;;;;14.63;3.27;;;18.80;74.30;;;;;;5076990;28;20191;-68
2023/10/29 12:34:00;;;;;;;16.00;2.97;;;18.70;74.50;;;;;;5060831;28;20183;-66
2023/10/29 12:36:28;;;;;;;11.57;2.97;;;18.80;74.80;;;;;;5076075;28;20565;-67
2023/10/29 12:39:04;;;;;;;17.90;3.03;;;18.80;74.80;;;;;;5063145;28;20175;-66
2023/10/29 12:41:38;;;;;;;17.97;3.10;;;18.80;75.00;;;;;;5083756;28;20198;-68
2023/10/29 12:44:33;;;;;;;16.63;3.00;;;18.80;75.20;;;;;;5067642;28;20559;-68
2023/10/29 12:47:03;;;;;;;13.43;2.80;;;18.80;75.30;;;;;;5066927;28;20179;-68
2023/10/29 12:49:34;;;;;;;11.70;2.50;;;18.70;75.20;;;;;;5076212;28;20171;-67
2023/10/29 12:52:12;;;;;;;15.43;2.47;;;18.70;75.10;;;;;;5063660;28;20188;-68
2023/10/29 12:54:43;;;;;;;13.00;2.17;;;18.70;75.20;;;;;;5090849;28;20203;-68
2023/10/29 12:57:19;;;;;;;16.53;2.83;;;18.60;75.30;;;;;;5061682;28;20318;-68